createdAt,value
2019-01-22T00:00:31.414Z,-1.40
2019-01-22T00:03:00.869Z,-1.40
2019-01-22T00:05:30.389Z,-1.40
2019-01-22T00:08:01.694Z,-1.40
2019-01-22T00:10:31.134Z,-1.50
2019-01-22T00:13:00.559Z,-1.70
2019-01-22T00:15:30.036Z,-1.50
2019-01-22T00:17:59.458Z,-1.90
2019-01-22T00:20:28.917Z,-1.50
2019-01-22T00:23:02.824Z,-1.50
2019-01-22T00:25:29.480Z,-1.40
2019-01-22T00:27:59.104Z,-1.40
2019-01-22T00:30:28.569Z,-1.40
2019-01-22T00:32:57.989Z,-1.30
2019-01-22T00:35:27.453Z,-1.30
2019-01-22T00:37:56.899Z,-1.30
2019-01-22T00:40:26.697Z,-1.40
2019-01-22T00:42:56.119Z,-1.40
2019-01-22T00:45:25.599Z,-1.40
2019-01-22T00:47:55.053Z,-1.40
2019-01-22T00:50:24.499Z,-2.10
2019-01-22T00:52:53.993Z,-1.90
2019-01-22T00:55:23.792Z,-1.60
2019-01-22T00:57:53.298Z,-1.50
2019-01-22T01:00:33.775Z,-1.60
2019-01-22T01:03:03.210Z,-1.50
2019-01-22T01:05:33.005Z,-1.40
2019-01-22T01:08:02.422Z,-1.30
2019-01-22T01:10:31.880Z,-1.40
2019-01-22T01:13:01.306Z,-1.40
2019-01-22T01:15:30.780Z,-1.40
2019-01-22T01:18:00.605Z,-1.40
2019-01-22T01:20:30.112Z,-1.30
2019-01-22T01:22:59.572Z,-1.40
2019-01-22T01:25:29.053Z,-1.40
2019-01-22T01:27:58.483Z,-1.40
2019-01-22T01:30:27.949Z,-1.30
2019-01-22T01:32:57.372Z,-1.40
2019-01-22T01:35:26.852Z,-1.40
2019-01-22T01:37:56.283Z,-1.40
2019-01-22T01:40:25.765Z,-1.40
2019-01-22T01:42:55.202Z,-1.40
2019-01-22T01:45:25.076Z,-1.40
2019-01-22T01:47:54.508Z,-1.40
2019-01-22T01:50:23.962Z,-1.40
2019-01-22T01:52:53.391Z,-1.40
2019-01-22T01:55:22.850Z,-1.40
2019-01-22T01:57:52.270Z,-1.40
2019-01-22T02:00:22.928Z,-1.40
2019-01-22T02:02:52.409Z,-1.40
2019-01-22T02:05:21.820Z,-1.40
2019-01-22T02:07:51.262Z,-1.40
2019-01-22T02:10:23.061Z,-1.40
2019-01-22T02:13:19.941Z,-1.40
2019-01-22T02:16:23.347Z,-1.40
2019-01-22T02:19:22.169Z,-1.30
2019-01-22T02:22:42.623Z,-1.30
2019-01-22T02:25:23.389Z,-1.40
2019-01-22T02:28:23.399Z,-1.40
2019-01-22T02:31:36.729Z,-1.30
2019-01-22T02:34:46.080Z,-1.40
2019-01-22T02:37:57.834Z,-1.40
2019-01-22T02:41:29.467Z,-1.40
2019-01-22T02:44:48.889Z,-1.40
2019-01-22T02:47:44.346Z,-1.40
2019-01-22T02:50:51.822Z,-1.40
2019-01-22T02:53:26.045Z,-1.30
2019-01-22T02:56:21.458Z,-1.40
2019-01-22T02:59:34.570Z,-1.40
2019-01-22T03:03:06.168Z,-1.40
2019-01-22T03:06:05.118Z,-1.40
2019-01-22T03:09:05.514Z,-1.40
2019-01-22T03:11:55.454Z,-1.40
2019-01-22T03:14:46.900Z,-1.40
2019-01-22T03:18:00.235Z,-1.30
2019-01-22T03:21:16.732Z,-1.40
2019-01-22T03:24:05.401Z,-1.40
2019-01-22T03:27:20.570Z,-1.40
2019-01-22T03:30:24.598Z,-1.40
2019-01-22T03:33:19.666Z,-1.50
2019-01-22T03:36:31.879Z,-1.50
2019-01-22T03:39:50.373Z,-1.50
2019-01-22T03:42:49.629Z,-1.50
2019-01-22T03:45:49.686Z,-1.50
2019-01-22T03:48:56.394Z,-1.50
2019-01-22T03:51:51.862Z,-1.80
2019-01-22T03:55:14.523Z,-1.60
2019-01-22T03:57:49.430Z,-1.50
2019-01-22T04:00:29.517Z,-1.50
2019-01-22T04:02:59.041Z,-1.80
2019-01-22T04:05:28.538Z,-1.60
2019-01-22T04:07:57.961Z,-1.80
2019-01-22T04:10:45.298Z,-1.60
2019-01-22T04:13:14.738Z,-1.50
2019-01-22T04:15:44.681Z,-1.40
2019-01-22T04:18:14.121Z,-1.40
2019-01-22T04:20:46.322Z,-1.40
2019-01-22T04:23:25.695Z,-1.40
2019-01-22T04:26:23.444Z,-1.40
2019-01-22T04:29:34.734Z,-1.40
2019-01-22T04:32:35.714Z,-1.40
2019-01-22T04:35:46.700Z,-1.40
2019-01-22T04:39:06.039Z,-1.40
2019-01-22T04:42:16.509Z,-1.40
2019-01-22T04:45:13.337Z,-1.50
2019-01-22T04:48:26.283Z,-1.40
2019-01-22T04:51:08.632Z,-1.40
2019-01-22T04:54:09.784Z,-1.60
2019-01-22T04:57:09.930Z,-1.60
2019-01-22T05:00:26.357Z,-1.60
2019-01-22T05:03:33.630Z,-1.50
2019-01-22T05:06:29.427Z,-1.60
2019-01-22T05:09:38.720Z,-1.50
2019-01-22T05:12:31.603Z,-1.50
2019-01-22T05:15:45.077Z,-1.80
2019-01-22T05:18:31.385Z,-1.60
2019-01-22T05:21:39.253Z,-1.50
2019-01-22T05:24:39.656Z,-1.40
2019-01-22T05:27:16.373Z,-1.50
2019-01-22T05:30:17.384Z,-1.50
2019-01-22T05:33:36.966Z,-1.40
2019-01-22T05:36:46.508Z,-1.40
2019-01-22T05:39:38.158Z,-1.50
2019-01-22T05:42:37.290Z,-1.50
2019-01-22T05:45:40.630Z,-1.50
2019-01-22T05:48:34.941Z,-1.70
2019-01-22T05:51:41.510Z,-1.60
2019-01-22T05:54:42.269Z,-1.60
2019-01-22T05:57:26.081Z,-1.60
2019-01-22T06:00:54.872Z,-1.60
2019-01-22T06:04:01.244Z,-1.60
2019-01-22T06:07:22.855Z,-1.50
2019-01-22T06:10:35.196Z,-1.50
2019-01-22T06:13:16.088Z,-1.50
2019-01-22T06:16:27.980Z,-1.50
2019-01-22T06:19:30.480Z,-1.50
2019-01-22T06:23:04.229Z,-1.50
2019-01-22T06:26:05.258Z,-1.60
2019-01-22T06:29:25.292Z,-1.60
2019-01-22T06:32:15.404Z,-1.50
2019-01-22T06:35:35.003Z,-1.50
2019-01-22T06:38:53.828Z,-1.60
2019-01-22T06:42:06.730Z,-2.00
2019-01-22T06:45:23.802Z,-1.90
2019-01-22T06:48:30.017Z,-1.80
2019-01-22T06:51:34.767Z,-1.80
2019-01-22T06:54:32.516Z,-1.80
2019-01-22T06:57:49.119Z,-1.70
2019-01-22T07:00:54.601Z,-1.70
2019-01-22T07:04:19.007Z,-1.70
2019-01-22T07:06:58.545Z,-1.60
2019-01-22T07:10:21.185Z,-1.70
2019-01-22T07:13:22.532Z,-1.70
2019-01-22T07:16:19.249Z,-1.70
2019-01-22T07:19:08.553Z,-1.80
2019-01-22T07:22:40.287Z,-1.80
2019-01-22T07:25:41.650Z,-1.90
2019-01-22T07:28:58.376Z,-1.80
2019-01-22T07:31:39.016Z,-1.80
2019-01-22T07:34:55.426Z,-1.70
2019-01-22T07:38:09.017Z,-1.80
2019-01-22T07:41:35.297Z,-2.00
2019-01-22T07:44:12.935Z,-2.90
2019-01-22T07:47:22.136Z,-2.20
2019-01-22T07:50:24.637Z,-1.90
2019-01-22T07:53:27.743Z,-1.80
2019-01-22T07:56:53.717Z,-1.70
2019-01-22T08:00:10.022Z,-1.70
2019-01-22T08:03:39.434Z,-1.70
2019-01-22T08:06:27.859Z,-1.70
2019-01-22T08:09:27.637Z,-1.70
2019-01-22T08:12:21.279Z,-1.70
2019-01-22T08:15:40.845Z,-1.70
2019-01-22T08:18:42.042Z,-1.70
2019-01-22T08:21:44.377Z,-1.90
2019-01-22T08:25:00.452Z,-1.80
2019-01-22T08:27:48.085Z,-1.70
2019-01-22T08:30:50.526Z,-1.70
2019-01-22T08:34:13.007Z,-1.70
2019-01-22T08:37:12.096Z,-1.70
2019-01-22T08:40:28.570Z,-1.70
2019-01-22T08:43:56.973Z,-1.70
2019-01-22T08:47:22.523Z,-1.60
2019-01-22T08:50:41.303Z,-1.60
2019-01-22T08:53:29.974Z,-1.70
2019-01-22T08:56:43.999Z,-2.00
2019-01-22T09:00:06.862Z,-2.00
2019-01-22T09:03:32.411Z,-1.80
2019-01-22T09:06:46.159Z,-1.70
2019-01-22T09:09:52.786Z,-1.60
2019-01-22T09:12:42.073Z,-1.70
2019-01-22T09:15:52.507Z,-1.60
2019-01-22T09:19:11.816Z,-1.60
2019-01-22T09:22:10.723Z,-1.60
2019-01-22T09:25:07.616Z,-1.60
2019-01-22T09:28:21.038Z,-1.70
2019-01-22T09:31:37.648Z,-1.70
2019-01-22T09:34:46.965Z,-1.80
2019-01-22T09:37:48.152Z,-1.60
2019-01-22T09:40:17.618Z,-1.70
2019-01-22T09:42:47.081Z,-1.60
2019-01-22T09:45:16.667Z,-1.60
2019-01-22T09:47:46.130Z,-1.50
2019-01-22T09:50:15.882Z,-1.50
2019-01-22T09:52:45.357Z,-1.50
2019-01-22T09:55:15.117Z,-1.50
2019-01-22T09:57:44.580Z,-1.50
2019-01-22T10:00:16.083Z,-1.50
2019-01-22T10:02:45.549Z,-1.60
2019-01-22T10:05:15.027Z,-1.50
2019-01-22T10:07:44.595Z,-1.60
2019-01-22T10:10:16.576Z,-1.50
2019-01-22T10:12:46.042Z,-1.60
2019-01-22T10:15:18.265Z,-1.50
2019-01-22T10:17:47.885Z,-1.50
2019-01-22T10:20:20.124Z,-1.50
2019-01-22T10:22:50.450Z,-1.60
2019-01-22T10:25:20.101Z,-1.50
2019-01-22T10:27:49.572Z,-1.50
2019-01-22T10:30:21.721Z,-1.40
2019-01-22T10:32:51.246Z,-1.40
2019-01-22T10:35:20.701Z,-1.40
2019-01-22T10:37:50.170Z,-1.40
2019-01-22T10:40:21.518Z,-1.40
2019-01-22T10:42:51.060Z,-1.40
2019-01-22T10:45:20.849Z,-1.50
2019-01-22T10:47:50.318Z,-1.50
2019-01-22T10:50:21.872Z,-1.50
2019-01-22T10:52:51.334Z,-1.40
2019-01-22T10:55:20.922Z,-1.60
2019-01-22T10:57:50.376Z,-1.50
2019-01-22T11:00:23.001Z,-1.50
2019-01-22T11:02:52.552Z,-1.40
2019-01-22T11:05:36.914Z,-1.40
2019-01-22T11:08:06.708Z,-1.50
2019-01-22T11:10:36.148Z,-1.40
2019-01-22T11:13:06.229Z,-1.70
2019-01-22T11:15:35.650Z,-1.60
2019-01-22T11:18:05.702Z,-1.40
2019-01-22T11:20:35.219Z,-1.40
2019-01-22T11:23:05.019Z,-1.30
2019-01-22T11:25:35.407Z,-1.30
2019-01-22T11:28:05.276Z,-1.20
2019-01-22T11:30:34.724Z,-1.20
2019-01-22T11:33:04.264Z,-1.20
2019-01-22T11:35:33.733Z,-1.30
2019-01-22T11:38:03.178Z,-1.30
2019-01-22T11:40:38.927Z,-1.30
2019-01-22T11:43:08.449Z,-1.30
2019-01-22T11:45:37.968Z,-1.20
2019-01-22T11:48:09.776Z,-1.20
2019-01-22T11:50:39.233Z,-1.10
2019-01-22T11:53:08.697Z,-1.10
2019-01-22T11:55:38.166Z,-1.10
2019-01-22T11:58:07.858Z,-1.10
2019-01-22T12:00:44.021Z,-1.10
2019-01-22T12:03:13.465Z,-1.10
2019-01-22T12:05:42.941Z,-1.00
2019-01-22T12:08:12.564Z,-1.00
2019-01-22T12:10:42.069Z,-1.10
2019-01-22T12:13:11.610Z,-1.10
2019-01-22T12:15:41.083Z,-1.20
2019-01-22T12:18:10.538Z,-1.20
2019-01-22T12:20:40.703Z,-1.50
2019-01-22T12:23:10.173Z,-1.30
2019-01-22T12:25:39.639Z,-1.20
2019-01-22T12:28:09.079Z,-1.20
2019-01-22T12:30:38.815Z,-1.10
2019-01-22T12:33:08.357Z,-1.10
2019-01-22T12:35:37.824Z,-1.00
2019-01-22T12:38:07.381Z,-0.90
2019-01-22T12:40:36.852Z,-1.00
2019-01-22T12:43:07.173Z,-1.00
2019-01-22T12:45:38.659Z,-0.90
2019-01-22T12:48:09.360Z,-0.90
2019-01-22T12:50:40.158Z,-0.90
2019-01-22T12:53:11.546Z,-0.80
2019-01-22T12:55:41.025Z,-0.90
2019-01-22T12:58:10.676Z,-0.90
2019-01-22T13:00:40.434Z,-0.90
2019-01-22T13:03:10.067Z,-0.80
2019-01-22T13:05:48.604Z,-0.90
2019-01-22T13:08:18.040Z,-0.90
2019-01-22T13:10:47.524Z,-0.80
2019-01-22T13:13:18.319Z,-0.90
2019-01-22T13:15:47.935Z,-0.90
2019-01-22T13:18:17.384Z,-0.80
2019-01-22T13:20:46.851Z,-0.80
2019-01-22T13:23:16.285Z,-0.80
2019-01-22T13:25:45.760Z,-0.80
2019-01-22T13:28:15.199Z,-0.80
2019-01-22T13:30:44.658Z,-0.90
2019-01-22T13:33:14.103Z,-1.10
2019-01-22T13:35:43.690Z,-0.90
2019-01-22T13:38:13.123Z,-0.90
2019-01-22T13:40:42.588Z,-0.80
2019-01-22T13:43:12.028Z,-0.80
2019-01-22T13:45:41.638Z,-1.00
2019-01-22T13:48:14.300Z,-1.20
2019-01-22T13:50:43.799Z,-1.10
2019-01-22T13:53:13.316Z,-1.20
2019-01-22T13:55:42.868Z,-1.20
2019-01-22T13:58:12.966Z,-1.20
2019-01-22T14:00:42.466Z,-1.10
2019-01-22T14:03:12.051Z,-1.00
2019-01-22T14:05:41.497Z,-0.90
2019-01-22T14:08:10.968Z,-1.00
2019-01-22T14:10:40.395Z,-1.20
2019-01-22T14:13:09.861Z,-1.00
2019-01-22T14:15:41.306Z,-0.90
2019-01-22T14:18:12.564Z,-0.80
2019-01-22T14:20:42.014Z,-0.80
2019-01-22T14:23:11.481Z,0.20
2019-01-22T14:25:40.905Z,-0.60
2019-01-22T14:28:10.400Z,0.60
2019-01-22T14:30:41.196Z,0.60
2019-01-22T14:33:11.016Z,1.50
2019-01-22T14:35:40.629Z,1.90
2019-01-22T14:38:10.366Z,2.50
2019-01-22T14:40:40.001Z,2.80
2019-01-22T14:43:09.819Z,2.90
2019-01-22T14:45:39.367Z,2.80
2019-01-22T14:48:08.803Z,2.90
2019-01-22T14:50:38.445Z,3.00
2019-01-22T14:53:07.981Z,2.30
2019-01-22T14:55:37.419Z,2.90
2019-01-22T14:58:07.111Z,2.50
2019-01-22T15:00:36.895Z,0.60
2019-01-22T15:03:06.505Z,0.60
2019-01-22T15:05:36.200Z,0.10
2019-01-22T15:08:05.878Z,1.90
2019-01-22T15:10:35.580Z,2.00
2019-01-22T15:13:05.772Z,2.00
2019-01-22T15:15:35.376Z,2.40
2019-01-22T15:18:05.408Z,0.20
2019-01-22T15:20:35.061Z,1.40
2019-01-22T15:23:04.698Z,0.80
2019-01-22T15:25:34.388Z,2.30
2019-01-22T15:28:04.276Z,2.50
2019-01-22T15:30:36.125Z,2.60
2019-01-22T15:33:06.775Z,1.60
2019-01-22T15:35:36.485Z,2.40
2019-01-22T15:38:06.581Z,3.00
2019-01-22T15:40:36.036Z,1.40
2019-01-22T15:43:05.722Z,1.10
2019-01-22T15:45:35.554Z,1.50
2019-01-22T15:48:05.384Z,2.40
2019-01-22T15:50:34.950Z,1.60
2019-01-22T15:53:04.481Z,2.60
2019-01-22T15:55:36.236Z,2.30
2019-01-22T15:58:06.799Z,2.30
2019-01-22T16:00:36.218Z,2.20
2019-01-22T16:03:06.176Z,2.10
2019-01-22T16:05:35.614Z,0.70
2019-01-22T16:08:06.572Z,0.50
2019-01-22T16:10:36.298Z,1.50
2019-01-22T16:13:06.897Z,1.50
2019-01-22T16:15:36.318Z,2.00
2019-01-22T16:18:05.872Z,2.10
2019-01-22T16:20:35.295Z,1.40
2019-01-22T16:23:04.770Z,1.90
2019-01-22T16:25:34.252Z,2.10
2019-01-22T16:28:03.686Z,2.20
2019-01-22T16:30:33.161Z,2.00
2019-01-22T16:33:02.598Z,2.40
2019-01-22T16:35:32.117Z,2.10
2019-01-22T16:38:01.540Z,1.50
2019-01-22T16:40:31.052Z,2.10
2019-01-22T16:43:00.474Z,1.60
2019-01-22T16:45:35.089Z,0.90
2019-01-22T16:48:04.831Z,0.40
2019-01-22T16:50:40.491Z,1.00
2019-01-22T16:53:13.378Z,1.30
2019-01-22T16:55:42.857Z,0.90
2019-01-22T16:58:12.309Z,0.00
2019-01-22T17:00:41.988Z,-1.10
2019-01-22T17:03:11.413Z,-0.90
2019-01-22T17:05:41.015Z,0.10
2019-01-22T17:08:10.445Z,1.20
2019-01-22T17:10:39.925Z,1.90
2019-01-22T17:13:09.550Z,0.80
2019-01-22T17:15:39.061Z,1.60
2019-01-22T17:18:09.390Z,1.40
2019-01-22T17:20:40.258Z,0.70
2019-01-22T17:23:09.691Z,-0.70
2019-01-22T17:25:39.686Z,0.60
2019-01-22T17:28:09.092Z,0.00
2019-01-22T17:30:38.565Z,-0.30
2019-01-22T17:33:36.343Z,-0.90
2019-01-22T17:36:06.049Z,-0.40
2019-01-22T17:38:35.616Z,0.40
2019-01-22T17:41:05.075Z,0.00
2019-01-22T17:43:34.535Z,0.90
2019-01-22T17:46:04.043Z,0.90
2019-01-22T17:48:33.479Z,-0.10
2019-01-22T17:51:02.924Z,0.80
2019-01-22T17:53:32.366Z,1.10
2019-01-22T17:56:01.825Z,0.10
2019-01-22T17:58:31.266Z,0.10
2019-01-22T18:01:00.734Z,0.50
2019-01-22T18:03:30.242Z,-1.20
2019-01-22T18:05:59.729Z,0.20
2019-01-22T18:08:29.169Z,1.20
2019-01-22T18:10:58.624Z,0.90
2019-01-22T18:13:28.063Z,0.60
2019-01-22T18:15:57.534Z,1.30
2019-01-22T18:18:26.972Z,1.60
2019-01-22T18:20:56.423Z,1.00
2019-01-22T18:23:25.862Z,0.00
2019-01-22T18:25:55.328Z,-0.60
2019-01-22T18:28:24.781Z,-0.20
2019-01-22T18:30:54.265Z,1.00
2019-01-22T18:33:23.698Z,-0.30
2019-01-22T18:35:53.162Z,0.90
2019-01-22T18:38:22.598Z,1.40
2019-01-22T18:40:52.091Z,1.50
2019-01-22T18:43:21.510Z,0.70
2019-01-22T18:45:51.002Z,1.10
2019-01-22T18:48:20.420Z,0.60
2019-01-22T18:50:49.874Z,0.20
2019-01-22T18:53:19.361Z,0.80
2019-01-22T18:55:48.882Z,0.90
2019-01-22T18:58:18.449Z,0.20
2019-01-22T19:00:48.177Z,0.50
2019-01-22T19:03:17.754Z,0.80
2019-01-22T19:05:47.862Z,0.40
2019-01-22T19:08:17.367Z,0.00
2019-01-22T19:10:46.799Z,-0.40
2019-01-22T19:13:16.271Z,-1.60
2019-01-22T19:15:45.722Z,-0.70
2019-01-22T19:18:15.324Z,-1.40
2019-01-22T19:20:44.768Z,-0.50
2019-01-22T19:23:14.241Z,0.30
2019-01-22T19:25:43.690Z,1.00
2019-01-22T19:28:13.142Z,0.90
2019-01-22T19:30:42.575Z,1.00
2019-01-22T19:33:12.043Z,1.10
2019-01-22T19:35:41.484Z,0.70
2019-01-22T19:38:10.943Z,1.10
2019-01-22T19:40:40.429Z,0.90
2019-01-22T19:43:09.901Z,-0.30
2019-01-22T19:45:39.372Z,0.30
2019-01-22T19:48:08.836Z,0.50
2019-01-22T19:50:38.277Z,1.20
2019-01-22T19:53:07.773Z,0.80
2019-01-22T19:55:37.354Z,0.30
2019-01-22T19:58:06.957Z,0.30
2019-01-22T20:00:38.664Z,0.90
2019-01-22T20:03:09.232Z,-0.30
2019-01-22T20:05:38.881Z,0.20
2019-01-22T20:08:09.207Z,-0.60
2019-01-22T20:10:38.741Z,0.60
2019-01-22T20:13:08.622Z,0.90
2019-01-22T20:15:38.120Z,-0.40
2019-01-22T20:18:07.946Z,-0.80
2019-01-22T20:20:37.686Z,-0.20
2019-01-22T20:23:07.448Z,0.50
2019-01-22T20:25:36.901Z,0.60
2019-01-22T20:28:08.226Z,0.60
2019-01-22T20:30:39.296Z,0.70
2019-01-22T20:33:09.278Z,0.50
2019-01-22T20:35:38.907Z,0.50
2019-01-22T20:38:08.789Z,0.80
2019-01-22T20:40:38.245Z,0.90
2019-01-22T20:43:07.706Z,0.20
2019-01-22T20:45:37.170Z,0.10
2019-01-22T20:48:06.816Z,0.20
2019-01-22T20:50:36.254Z,-0.80
2019-01-22T20:53:06.126Z,-0.70
2019-01-22T20:55:35.572Z,-0.20
2019-01-22T20:58:05.686Z,0.00
2019-01-22T21:00:35.148Z,-1.10
2019-01-22T21:03:04.628Z,-0.20
2019-01-22T21:05:34.060Z,-0.20
2019-01-22T21:08:03.597Z,-0.60
2019-01-22T21:10:34.430Z,-0.30
2019-01-22T21:13:04.009Z,-0.40
2019-01-22T21:15:33.482Z,-0.40
2019-01-22T21:18:03.057Z,-0.10
2019-01-22T21:20:32.528Z,-1.10
2019-01-22T21:23:01.967Z,-1.00
2019-01-22T21:25:31.525Z,-0.60
2019-01-22T21:28:01.930Z,-0.20
2019-01-22T21:30:33.776Z,-0.20
2019-01-22T21:33:04.282Z,-1.20
2019-01-22T21:35:33.787Z,-0.40
2019-01-22T21:38:03.229Z,-1.70
2019-01-22T21:40:32.694Z,-2.40
2019-01-22T21:43:02.173Z,-2.80
2019-01-22T21:45:31.742Z,-2.60
2019-01-22T21:48:01.237Z,-3.00
2019-01-22T21:50:30.714Z,-1.90
2019-01-22T21:53:00.201Z,-1.60
2019-01-22T21:55:29.669Z,-0.60
2019-01-22T21:57:59.110Z,0.00
2019-01-22T22:00:28.617Z,0.00
2019-01-22T22:02:58.066Z,-0.40
2019-01-22T22:05:29.326Z,-0.20
2019-01-22T22:07:58.878Z,0.20
2019-01-22T22:10:28.337Z,-0.70
2019-01-22T22:12:57.843Z,0.00
2019-01-22T22:15:27.303Z,-0.80
2019-01-22T22:17:56.769Z,-0.80
2019-01-22T22:20:26.401Z,-1.10
2019-01-22T22:22:55.838Z,-0.40
2019-01-22T22:25:25.325Z,-0.50
2019-01-22T22:27:54.767Z,-0.50
2019-01-22T22:30:33.173Z,0.00
2019-01-22T22:33:02.609Z,-0.10
2019-01-22T22:35:32.082Z,0.10
2019-01-22T22:38:01.581Z,0.10
2019-01-22T22:40:31.055Z,0.10
2019-01-22T22:43:00.503Z,-0.10
2019-01-22T22:45:30.013Z,-0.10
2019-01-22T22:47:59.478Z,-0.90
2019-01-22T22:50:31.086Z,-0.90
2019-01-22T22:53:00.521Z,-0.40
2019-01-22T22:55:30.042Z,-0.30
2019-01-22T22:57:59.506Z,-0.40
2019-01-22T23:00:46.249Z,-1.40
2019-01-22T23:03:16.284Z,-1.70
2019-01-22T23:05:45.745Z,-2.10
2019-01-22T23:08:15.193Z,-0.90
2019-01-22T23:10:44.675Z,-0.30
2019-01-22T23:13:14.133Z,-0.20
2019-01-22T23:15:43.613Z,-0.20
2019-01-22T23:18:13.166Z,-0.10
2019-01-22T23:20:42.710Z,-0.40
2019-01-22T23:23:12.158Z,-0.40
2019-01-22T23:25:41.629Z,-0.20
2019-01-22T23:28:11.069Z,-0.50
2019-01-22T23:30:40.589Z,-0.60
2019-01-22T23:33:10.029Z,-0.40
2019-01-22T23:35:39.495Z,-0.20
2019-01-22T23:38:08.936Z,-0.20
2019-01-22T23:40:38.388Z,-0.30
2019-01-22T23:43:07.891Z,-0.30
2019-01-22T23:45:37.374Z,-0.40
2019-01-22T23:48:06.874Z,-0.60
2019-01-22T23:50:36.370Z,-0.30
2019-01-22T23:53:06.052Z,-0.30
2019-01-22T23:55:35.499Z,-0.20
2019-01-22T23:58:05.010Z,-0.20
